Flugplatz Frankfurt-Hahn

Bericht für EDFH

vom 01.08. um 16:50 UTC

Wind 6 kt aus 320°

Sichtweite 10 km oder mehr

schwacher Regenschauer

gering bewölkt in 4000 ft

Temperatur 13.0°C

Taupunkt 12.0°C

Luftfeuchtigkeit 94%

Luftdruck 1012 hPa

EDFH 011650Z 32006KT 290V350 9999 -SHRA FEW040CB 13/12 Q1012

Prognose für EDFH

vom 01.08. um 11:00 UTC

Zwischen 12:00 UTC und 22:00 UTC

Wind 10 kt aus 270°

Sichtweite 10 km oder mehr

aufgelockert bewölkt in 2000 ft


Zwischen 12:00 UTC und 19:00 UTC zeitweise mit einer Wahrscheinlichkeit von 30%

Regenschauer

aufgebrochene Bewölkung in 1400 ft


Zwischen 22:00 und 00:00 UTC übergehend zu

Wind 5 kt aus 260°

Sichtweite 10 km oder mehr

aufgelockert bewölkt in 2000 ft


Am 02.08. zwischen 02:00 UTC und 08:00 UTC zeitweise

aufgebrochene Bewölkung in 600 ft


Am 02.08. zwischen 10:00 UTC und 12:00 UTC zeitweise

Regenschauer

aufgebrochene Bewölkung in 1200 ft


Am 02.08. zwischen 11:00 UTC und 12:00 UTC zeitweise mit einer Wahrscheinlichkeit von 30%

Code: TSRA

TAF EDFH 011100Z 0112/0212 27010KT 9999 SCT020 PROB30 TEMPO 0112/0119 SHRA BKN014CB BECMG 0122/0124 26005KT TEMPO 0202/0208 BKN006 TEMPO 0210/0212 SHRA BKN012CB PROB30 TEMPO 0211/0212 TSRA
Impressum